sensor_id;sensor_type;location;lat;lon;timestamp;P1;durP1;ratioP1;P2;durP2;ratioP2
11328;SDS011;5719;42.714;23.732;2023-04-16T00:00:17;3.42;;;1.30;;
11328;SDS011;5719;42.714;23.732;2023-04-16T00:02:45;4.03;;;2.13;;
11328;SDS011;5719;42.714;23.732;2023-04-16T00:05:12;4.13;;;2.05;;
11328;SDS011;5719;42.714;23.732;2023-04-16T00:07:40;3.53;;;1.70;;
11328;SDS011;5719;42.714;23.732;2023-04-16T00:10:07;3.63;;;1.73;;
11328;SDS011;5719;42.714;23.732;2023-04-16T00:12:34;2.90;;;1.60;;
11328;SDS011;5719;42.714;23.732;2023-04-16T00:15:01;2.38;;;1.50;;
11328;SDS011;5719;42.714;23.732;2023-04-16T00:17:29;3.38;;;1.85;;
11328;SDS011;5719;42.714;23.732;2023-04-16T00:19:56;2.83;;;2.00;;
11328;SDS011;5719;42.714;23.732;2023-04-16T00:22:23;3.45;;;2.00;;
11328;SDS011;5719;42.714;23.732;2023-04-16T00:24:51;5.22;;;2.33;;
11328;SDS011;5719;42.714;23.732;2023-04-16T00:27:18;3.35;;;2.30;;
11328;SDS011;5719;42.714;23.732;2023-04-16T00:29:45;3.20;;;2.45;;
11328;SDS011;5719;42.714;23.732;2023-04-16T00:32:12;10.45;;;5.60;;
11328;SDS011;5719;42.714;23.732;2023-04-16T00:34:39;6.47;;;4.65;;
11328;SDS011;5719;42.714;23.732;2023-04-16T00:37:06;4.20;;;3.25;;
11328;SDS011;5719;42.714;23.732;2023-04-16T00:39:33;2.63;;;2.35;;
11328;SDS011;5719;42.714;23.732;2023-04-16T00:42:01;5.05;;;2.65;;
11328;SDS011;5719;42.714;23.732;2023-04-16T00:44:28;6.75;;;2.78;;
11328;SDS011;5719;42.714;23.732;2023-04-16T00:46:55;2.47;;;2.28;;
11328;SDS011;5719;42.714;23.732;2023-04-16T00:49:23;4.80;;;2.63;;
11328;SDS011;5719;42.714;23.732;2023-04-16T00:51:50;2.38;;;2.17;;
11328;SDS011;5719;42.714;23.732;2023-04-16T00:54:17;2.17;;;2.08;;
11328;SDS011;5719;42.714;23.732;2023-04-16T00:56:44;3.85;;;2.30;;
11328;SDS011;5719;42.714;23.732;2023-04-16T00:59:13;5.30;;;2.20;;
11328;SDS011;5719;42.714;23.732;2023-04-16T01:01:40;3.72;;;2.30;;
11328;SDS011;5719;42.714;23.732;2023-04-16T01:04:07;5.72;;;2.65;;
11328;SDS011;5719;42.714;23.732;2023-04-16T01:06:34;6.25;;;2.30;;
11328;SDS011;5719;42.714;23.732;2023-04-16T01:09:01;8.40;;;3.90;;
11328;SDS011;5719;42.714;23.732;2023-04-16T01:11:28;6.18;;;4.05;;
11328;SDS011;5719;42.714;23.732;2023-04-16T01:13:55;6.78;;;3.47;;
11328;SDS011;5719;42.714;23.732;2023-04-16T01:16:23;6.57;;;3.35;;
11328;SDS011;5719;42.714;23.732;2023-04-16T01:18:50;10.65;;;4.47;;
11328;SDS011;5719;42.714;23.732;2023-04-16T01:21:19;6.88;;;2.65;;
11328;SDS011;5719;42.714;23.732;2023-04-16T01:23:46;2.22;;;1.90;;
11328;SDS011;5719;42.714;23.732;2023-04-16T01:26:12;1.55;;;1.45;;
11328;SDS011;5719;42.714;23.732;2023-04-16T01:28:39;6.80;;;2.10;;
11328;SDS011;5719;42.714;23.732;2023-04-16T01:31:06;3.53;;;1.50;;
11328;SDS011;5719;42.714;23.732;2023-04-16T01:33:33;3.60;;;2.00;;
11328;SDS011;5719;42.714;23.732;2023-04-16T01:36:00;4.07;;;2.60;;
11328;SDS011;5719;42.714;23.732;2023-04-16T01:38:28;5.47;;;3.63;;
11328;SDS011;5719;42.714;23.732;2023-04-16T01:40:55;4.88;;;3.60;;
11328;SDS011;5719;42.714;23.732;2023-04-16T01:43:23;6.80;;;3.90;;
11328;SDS011;5719;42.714;23.732;2023-04-16T01:45:50;5.00;;;3.35;;
11328;SDS011;5719;42.714;23.732;2023-04-16T01:48:19;5.78;;;3.53;;
11328;SDS011;5719;42.714;23.732;2023-04-16T01:50:46;3.88;;;2.70;;
11328;SDS011;5719;42.714;23.732;2023-04-16T01:53:13;5.97;;;2.30;;
11328;SDS011;5719;42.714;23.732;2023-04-16T01:55:41;3.13;;;2.00;;
11328;SDS011;5719;42.714;23.732;2023-04-16T01:58:08;3.10;;;2.58;;
11328;SDS011;5719;42.714;23.732;2023-04-16T02:00:37;3.42;;;3.13;;
11328;SDS011;5719;42.714;23.732;2023-04-16T02:03:04;3.10;;;2.70;;
11328;SDS011;5719;42.714;23.732;2023-04-16T02:05:31;4.00;;;2.60;;
11328;SDS011;5719;42.714;23.732;2023-04-16T02:07:58;3.05;;;2.35;;
11328;SDS011;5719;42.714;23.732;2023-04-16T02:10:25;2.53;;;2.05;;
11328;SDS011;5719;42.714;23.732;2023-04-16T02:12:54;5.85;;;2.10;;
11328;SDS011;5719;42.714;23.732;2023-04-16T02:15:21;3.17;;;2.80;;
11328;SDS011;5719;42.714;23.732;2023-04-16T02:17:49;8.55;;;3.80;;
11328;SDS011;5719;42.714;23.732;2023-04-16T02:20:20;13.98;;;5.65;;
11328;SDS011;5719;42.714;23.732;2023-04-16T02:22:47;7.55;;;3.55;;
11328;SDS011;5719;42.714;23.732;2023-04-16T02:25:14;6.70;;;3.30;;
11328;SDS011;5719;42.714;23.732;2023-04-16T02:27:41;5.88;;;3.17;;
11328;SDS011;5719;42.714;23.732;2023-04-16T02:30:10;5.88;;;2.72;;
11328;SDS011;5719;42.714;23.732;2023-04-16T02:32:37;8.23;;;3.22;;
11328;SDS011;5719;42.714;23.732;2023-04-16T02:35:04;4.45;;;3.03;;
11328;SDS011;5719;42.714;23.732;2023-04-16T02:37:32;6.20;;;3.20;;
11328;SDS011;5719;42.714;23.732;2023-04-16T02:39:59;6.70;;;2.95;;
11328;SDS011;5719;42.714;23.732;2023-04-16T02:42:26;4.60;;;2.90;;
11328;SDS011;5719;42.714;23.732;2023-04-16T02:44:52;4.25;;;2.90;;
11328;SDS011;5719;42.714;23.732;2023-04-16T02:47:21;4.93;;;2.72;;
11328;SDS011;5719;42.714;23.732;2023-04-16T02:49:47;5.47;;;2.60;;
11328;SDS011;5719;42.714;23.732;2023-04-16T02:52:14;9.10;;;5.18;;
11328;SDS011;5719;42.714;23.732;2023-04-16T02:54:41;7.25;;;3.80;;
11328;SDS011;5719;42.714;23.732;2023-04-16T02:57:08;5.32;;;3.55;;
11328;SDS011;5719;42.714;23.732;2023-04-16T02:59:35;5.65;;;2.65;;
11328;SDS011;5719;42.714;23.732;2023-04-16T03:02:02;4.78;;;2.55;;
11328;SDS011;5719;42.714;23.732;2023-04-16T03:04:31;6.63;;;3.30;;
11328;SDS011;5719;42.714;23.732;2023-04-16T03:06:58;6.60;;;3.60;;
11328;SDS011;5719;42.714;23.732;2023-04-16T03:09:25;8.55;;;4.60;;
11328;SDS011;5719;42.714;23.732;2023-04-16T03:11:52;4.60;;;3.58;;
11328;SDS011;5719;42.714;23.732;2023-04-16T03:14:19;6.13;;;3.67;;
11328;SDS011;5719;42.714;23.732;2023-04-16T03:16:45;3.90;;;2.88;;
11328;SDS011;5719;42.714;23.732;2023-04-16T03:19:12;3.85;;;2.90;;
11328;SDS011;5719;42.714;23.732;2023-04-16T03:21:41;2.88;;;2.42;;
11328;SDS011;5719;42.714;23.732;2023-04-16T03:24:08;3.42;;;2.70;;
11328;SDS011;5719;42.714;23.732;2023-04-16T03:26:34;3.50;;;2.70;;
11328;SDS011;5719;42.714;23.732;2023-04-16T03:29:01;5.05;;;2.72;;
11328;SDS011;5719;42.714;23.732;2023-04-16T03:31:28;5.93;;;3.45;;
11328;SDS011;5719;42.714;23.732;2023-04-16T03:33:55;12.27;;;5.20;;
11328;SDS011;5719;42.714;23.732;2023-04-16T03:36:22;5.82;;;4.32;;
11328;SDS011;5719;42.714;23.732;2023-04-16T03:38:52;10.95;;;5.13;;
11328;SDS011;5719;42.714;23.732;2023-04-16T03:41:19;7.20;;;4.30;;
11328;SDS011;5719;42.714;23.732;2023-04-16T03:43:45;4.90;;;3.40;;
11328;SDS011;5719;42.714;23.732;2023-04-16T03:46:12;5.18;;;3.15;;
11328;SDS011;5719;42.714;23.732;2023-04-16T03:48:39;6.82;;;3.33;;
11328;SDS011;5719;42.714;23.732;2023-04-16T03:51:06;8.88;;;3.53;;
11328;SDS011;5719;42.714;23.732;2023-04-16T03:53:33;4.63;;;3.47;;
11328;SDS011;5719;42.714;23.732;2023-04-16T03:56:01;7.20;;;3.67;;
11328;SDS011;5719;42.714;23.732;2023-04-16T03:58:28;9.35;;;3.42;;
11328;SDS011;5719;42.714;23.732;2023-04-16T04:00:55;4.32;;;2.83;;
11328;SDS011;5719;42.714;23.732;2023-04-16T04:03:22;6.75;;;3.60;;
11328;SDS011;5719;42.714;23.732;2023-04-16T04:05:50;7.10;;;3.50;;
11328;SDS011;5719;42.714;23.732;2023-04-16T04:08:17;6.13;;;3.47;;
11328;SDS011;5719;42.714;23.732;2023-04-16T04:10:44;3.60;;;2.97;;
11328;SDS011;5719;42.714;23.732;2023-04-16T04:13:12;5.10;;;2.90;;
11328;SDS011;5719;42.714;23.732;2023-04-16T04:15:39;5.70;;;3.45;;
11328;SDS011;5719;42.714;23.732;2023-04-16T04:18:06;6.70;;;3.35;;
11328;SDS011;5719;42.714;23.732;2023-04-16T04:20:33;4.88;;;2.95;;
11328;SDS011;5719;42.714;23.732;2023-04-16T04:22:59;7.05;;;3.25;;
11328;SDS011;5719;42.714;23.732;2023-04-16T04:25:26;7.55;;;3.58;;
11328;SDS011;5719;42.714;23.732;2023-04-16T04:27:53;11.00;;;4.30;;
11328;SDS011;5719;42.714;23.732;2023-04-16T04:30:22;8.77;;;4.70;;
11328;SDS011;5719;42.714;23.732;2023-04-16T04:32:48;14.98;;;5.15;;
11328;SDS011;5719;42.714;23.732;2023-04-16T04:35:15;9.63;;;4.82;;
11328;SDS011;5719;42.714;23.732;2023-04-16T04:37:42;7.05;;;4.30;;
11328;SDS011;5719;42.714;23.732;2023-04-16T04:40:09;8.00;;;4.10;;
11328;SDS011;5719;42.714;23.732;2023-04-16T04:42:37;5.38;;;4.10;;
11328;SDS011;5719;42.714;23.732;2023-04-16T04:45:04;5.28;;;3.63;;
11328;SDS011;5719;42.714;23.732;2023-04-16T04:47:33;9.20;;;3.70;;
11328;SDS011;5719;42.714;23.732;2023-04-16T04:50:00;4.22;;;3.40;;
11328;SDS011;5719;42.714;23.732;2023-04-16T04:52:27;7.07;;;3.75;;
11328;SDS011;5719;42.714;23.732;2023-04-16T04:54:54;7.28;;;3.28;;
11328;SDS011;5719;42.714;23.732;2023-04-16T04:57:20;4.57;;;2.90;;
11328;SDS011;5719;42.714;23.732;2023-04-16T04:59:47;4.57;;;2.58;;
11328;SDS011;5719;42.714;23.732;2023-04-16T05:02:14;4.20;;;2.60;;
11328;SDS011;5719;42.714;23.732;2023-04-16T05:04:43;3.38;;;2.50;;
11328;SDS011;5719;42.714;23.732;2023-04-16T05:07:10;5.53;;;2.60;;
11328;SDS011;5719;42.714;23.732;2023-04-16T05:09:36;5.35;;;2.85;;
11328;SDS011;5719;42.714;23.732;2023-04-16T05:12:03;6.38;;;2.65;;
11328;SDS011;5719;42.714;23.732;2023-04-16T05:14:30;5.75;;;3.15;;
11328;SDS011;5719;42.714;23.732;2023-04-16T05:16:57;6.97;;;3.20;;
11328;SDS011;5719;42.714;23.732;2023-04-16T05:19:24;8.48;;;2.95;;
11328;SDS011;5719;42.714;23.732;2023-04-16T05:21:52;6.07;;;3.40;;
11328;SDS011;5719;42.714;23.732;2023-04-16T05:24:19;5.57;;;3.30;;
11328;SDS011;5719;42.714;23.732;2023-04-16T05:26:46;6.43;;;3.08;;
11328;SDS011;5719;42.714;23.732;2023-04-16T05:29:13;3.60;;;2.72;;
11328;SDS011;5719;42.714;23.732;2023-04-16T05:31:40;5.00;;;2.70;;
11328;SDS011;5719;42.714;23.732;2023-04-16T05:34:07;8.00;;;2.75;;
11328;SDS011;5719;42.714;23.732;2023-04-16T05:36:34;7.70;;;3.10;;
11328;SDS011;5719;42.714;23.732;2023-04-16T05:39:02;10.85;;;2.63;;
11328;SDS011;5719;42.714;23.732;2023-04-16T05:41:30;9.10;;;3.20;;
11328;SDS011;5719;42.714;23.732;2023-04-16T05:43:57;6.53;;;3.00;;
11328;SDS011;5719;42.714;23.732;2023-04-16T05:46:24;3.75;;;3.00;;
11328;SDS011;5719;42.714;23.732;2023-04-16T05:48:51;5.82;;;3.13;;
11328;SDS011;5719;42.714;23.732;2023-04-16T05:51:19;4.20;;;3.40;;
11328;SDS011;5719;42.714;23.732;2023-04-16T05:53:48;9.05;;;3.40;;
11328;SDS011;5719;42.714;23.732;2023-04-16T05:56:17;7.18;;;3.67;;
11328;SDS011;5719;42.714;23.732;2023-04-16T05:58:45;9.30;;;3.70;;
11328;SDS011;5719;42.714;23.732;2023-04-16T06:01:12;14.65;;;3.60;;
11328;SDS011;5719;42.714;23.732;2023-04-16T06:03:38;6.38;;;2.63;;
11328;SDS011;5719;42.714;23.732;2023-04-16T06:06:05;7.03;;;3.10;;
11328;SDS011;5719;42.714;23.732;2023-04-16T06:08:33;6.20;;;2.40;;
11328;SDS011;5719;42.714;23.732;2023-04-16T06:11:00;6.10;;;2.55;;
11328;SDS011;5719;42.714;23.732;2023-04-16T06:13:28;10.00;;;2.30;;
11328;SDS011;5719;42.714;23.732;2023-04-16T06:15:55;3.45;;;1.90;;
11328;SDS011;5719;42.714;23.732;2023-04-16T06:18:22;4.78;;;1.83;;
11328;SDS011;5719;42.714;23.732;2023-04-16T06:20:49;5.07;;;1.88;;
11328;SDS011;5719;42.714;23.732;2023-04-16T06:23:16;4.18;;;1.58;;
11328;SDS011;5719;42.714;23.732;2023-04-16T06:25:43;3.70;;;1.67;;
11328;SDS011;5719;42.714;23.732;2023-04-16T06:28:10;8.73;;;1.60;;
11328;SDS011;5719;42.714;23.732;2023-04-16T06:30:39;5.20;;;1.85;;
11328;SDS011;5719;42.714;23.732;2023-04-16T06:33:06;10.30;;;1.85;;
11328;SDS011;5719;42.714;23.732;2023-04-16T06:35:32;5.53;;;1.90;;
11328;SDS011;5719;42.714;23.732;2023-04-16T06:38:00;3.83;;;1.63;;
11328;SDS011;5719;42.714;23.732;2023-04-16T06:40:27;5.20;;;1.48;;
11328;SDS011;5719;42.714;23.732;2023-04-16T06:42:54;6.60;;;1.65;;
11328;SDS011;5719;42.714;23.732;2023-04-16T06:45:21;6.47;;;1.55;;
11328;SDS011;5719;42.714;23.732;2023-04-16T06:47:50;10.18;;;1.60;;
11328;SDS011;5719;42.714;23.732;2023-04-16T06:50:17;5.45;;;1.48;;
11328;SDS011;5719;42.714;23.732;2023-04-16T06:52:45;6.93;;;1.25;;
11328;SDS011;5719;42.714;23.732;2023-04-16T06:55:12;5.43;;;1.65;;
11328;SDS011;5719;42.714;23.732;2023-04-16T06:57:39;6.35;;;1.58;;
11328;SDS011;5719;42.714;23.732;2023-04-16T07:00:06;9.88;;;1.90;;
11328;SDS011;5719;42.714;23.732;2023-04-16T07:02:34;6.85;;;1.63;;
11328;SDS011;5719;42.714;23.732;2023-04-16T07:05:02;8.48;;;1.80;;
11328;SDS011;5719;42.714;23.732;2023-04-16T07:07:30;4.03;;;1.60;;
11328;SDS011;5719;42.714;23.732;2023-04-16T07:09:58;4.03;;;1.50;;
11328;SDS011;5719;42.714;23.732;2023-04-16T07:12:25;5.07;;;1.95;;
11328;SDS011;5719;42.714;23.732;2023-04-16T07:14:52;5.10;;;1.80;;
11328;SDS011;5719;42.714;23.732;2023-04-16T07:17:19;10.60;;;1.90;;
11328;SDS011;5719;42.714;23.732;2023-04-16T07:19:46;8.60;;;2.25;;
11328;SDS011;5719;42.714;23.732;2023-04-16T07:22:14;10.73;;;1.98;;
11328;SDS011;5719;42.714;23.732;2023-04-16T07:24:42;4.32;;;1.73;;
11328;SDS011;5719;42.714;23.732;2023-04-16T07:27:09;5.43;;;1.95;;
11328;SDS011;5719;42.714;23.732;2023-04-16T07:29:39;3.83;;;1.55;;
11328;SDS011;5719;42.714;23.732;2023-04-16T07:32:07;3.90;;;1.80;;
11328;SDS011;5719;42.714;23.732;2023-04-16T07:34:34;5.25;;;1.80;;
11328;SDS011;5719;42.714;23.732;2023-04-16T07:37:01;5.18;;;1.65;;
11328;SDS011;5719;42.714;23.732;2023-04-16T07:39:30;5.00;;;1.75;;
11328;SDS011;5719;42.714;23.732;2023-04-16T07:41:57;9.85;;;2.10;;
11328;SDS011;5719;42.714;23.732;2023-04-16T07:44:24;8.05;;;1.98;;
11328;SDS011;5719;42.714;23.732;2023-04-16T07:46:52;6.75;;;1.80;;
11328;SDS011;5719;42.714;23.732;2023-04-16T07:49:19;5.13;;;1.42;;
11328;SDS011;5719;42.714;23.732;2023-04-16T07:51:46;3.53;;;1.58;;
11328;SDS011;5719;42.714;23.732;2023-04-16T07:54:13;8.85;;;2.05;;
11328;SDS011;5719;42.714;23.732;2023-04-16T07:56:42;7.15;;;1.98;;
11328;SDS011;5719;42.714;23.732;2023-04-16T07:59:09;6.72;;;2.08;;
11328;SDS011;5719;42.714;23.732;2023-04-16T08:01:36;4.95;;;2.35;;
11328;SDS011;5719;42.714;23.732;2023-04-16T08:04:03;5.05;;;1.83;;
11328;SDS011;5719;42.714;23.732;2023-04-16T08:06:30;5.00;;;1.90;;
11328;SDS011;5719;42.714;23.732;2023-04-16T08:08:57;9.57;;;2.25;;
11328;SDS011;5719;42.714;23.732;2023-04-16T08:11:24;3.92;;;1.42;;
11328;SDS011;5719;42.714;23.732;2023-04-16T08:13:52;6.03;;;2.22;;
11328;SDS011;5719;42.714;23.732;2023-04-16T08:16:19;7.75;;;2.05;;
11328;SDS011;5719;42.714;23.732;2023-04-16T08:18:46;10.40;;;1.98;;
11328;SDS011;5719;42.714;23.732;2023-04-16T08:21:13;6.03;;;1.90;;
11328;SDS011;5719;42.714;23.732;2023-04-16T08:23:40;4.07;;;2.13;;
11328;SDS011;5719;42.714;23.732;2023-04-16T08:26:07;4.63;;;1.92;;
11328;SDS011;5719;42.714;23.732;2023-04-16T08:28:34;3.92;;;2.08;;
11328;SDS011;5719;42.714;23.732;2023-04-16T08:31:02;4.57;;;1.60;;
11328;SDS011;5719;42.714;23.732;2023-04-16T08:33:29;5.00;;;1.90;;
11328;SDS011;5719;42.714;23.732;2023-04-16T08:35:56;3.95;;;1.50;;
11328;SDS011;5719;42.714;23.732;2023-04-16T08:38:23;10.10;;;1.92;;
11328;SDS011;5719;42.714;23.732;2023-04-16T08:40:50;6.68;;;1.92;;
11328;SDS011;5719;42.714;23.732;2023-04-16T08:43:19;4.97;;;1.45;;
11328;SDS011;5719;42.714;23.732;2023-04-16T08:45:49;4.75;;;1.45;;
11328;SDS011;5719;42.714;23.732;2023-04-16T08:48:21;5.57;;;1.75;;
11328;SDS011;5719;42.714;23.732;2023-04-16T08:50:51;5.50;;;1.63;;
11328;SDS011;5719;42.714;23.732;2023-04-16T08:53:18;3.33;;;1.58;;
11328;SDS011;5719;42.714;23.732;2023-04-16T08:55:55;6.53;;;1.70;;
11328;SDS011;5719;42.714;23.732;2023-04-16T08:58:28;7.80;;;1.90;;
11328;SDS011;5719;42.714;23.732;2023-04-16T09:00:59;6.50;;;1.95;;
11328;SDS011;5719;42.714;23.732;2023-04-16T09:03:29;6.75;;;1.80;;
11328;SDS011;5719;42.714;23.732;2023-04-16T09:05:57;5.88;;;2.10;;
11328;SDS011;5719;42.714;23.732;2023-04-16T09:08:25;4.68;;;2.70;;
11328;SDS011;5719;42.714;23.732;2023-04-16T09:10:52;7.50;;;2.40;;
11328;SDS011;5719;42.714;23.732;2023-04-16T09:13:21;6.70;;;2.03;;
11328;SDS011;5719;42.714;23.732;2023-04-16T09:15:50;4.97;;;1.23;;
11328;SDS011;5719;42.714;23.732;2023-04-16T09:18:18;2.72;;;1.00;;
11328;SDS011;5719;42.714;23.732;2023-04-16T09:20:48;3.15;;;1.17;;
11328;SDS011;5719;42.714;23.732;2023-04-16T09:23:16;5.60;;;1.30;;
11328;SDS011;5719;42.714;23.732;2023-04-16T09:25:43;3.42;;;1.00;;
11328;SDS011;5719;42.714;23.732;2023-04-16T09:28:10;5.88;;;1.20;;
11328;SDS011;5719;42.714;23.732;2023-04-16T09:30:37;4.03;;;0.90;;
11328;SDS011;5719;42.714;23.732;2023-04-16T09:35:50;2.63;;;0.95;;
11328;SDS011;5719;42.714;23.732;2023-04-16T09:38:18;4.85;;;0.98;;
11328;SDS011;5719;42.714;23.732;2023-04-16T09:40:46;1.08;;;0.65;;
11328;SDS011;5719;42.714;23.732;2023-04-16T09:43:13;3.25;;;1.25;;
11328;SDS011;5719;42.714;23.732;2023-04-16T09:45:47;5.47;;;0.90;;
11328;SDS011;5719;42.714;23.732;2023-04-16T09:48:17;2.03;;;0.80;;
11328;SDS011;5719;42.714;23.732;2023-04-16T09:50:55;2.17;;;0.88;;
11328;SDS011;5719;42.714;23.732;2023-04-16T09:53:23;1.45;;;0.65;;
11328;SDS011;5719;42.714;23.732;2023-04-16T09:55:50;3.55;;;0.90;;
11328;SDS011;5719;42.714;23.732;2023-04-16T09:58:17;5.28;;;1.05;;
11328;SDS011;5719;42.714;23.732;2023-04-16T10:00:45;1.70;;;0.95;;
11328;SDS011;5719;42.714;23.732;2023-04-16T10:03:12;3.03;;;1.20;;
11328;SDS011;5719;42.714;23.732;2023-04-16T10:05:39;6.00;;;1.15;;
11328;SDS011;5719;42.714;23.732;2023-04-16T10:08:11;2.42;;;1.15;;
11328;SDS011;5719;42.714;23.732;2023-04-16T10:10:39;3.30;;;1.10;;
11328;SDS011;5719;42.714;23.732;2023-04-16T10:13:06;4.03;;;0.90;;
11328;SDS011;5719;42.714;23.732;2023-04-16T10:15:34;5.97;;;0.93;;
11328;SDS011;5719;42.714;23.732;2023-04-16T10:18:01;2.65;;;0.82;;
11328;SDS011;5719;42.714;23.732;2023-04-16T10:20:30;3.90;;;0.80;;
11328;SDS011;5719;42.714;23.732;2023-04-16T10:22:57;1.52;;;0.70;;
11328;SDS011;5719;42.714;23.732;2023-04-16T10:25:26;3.42;;;0.90;;
11328;SDS011;5719;42.714;23.732;2023-04-16T10:27:54;1.42;;;0.57;;
11328;SDS011;5719;42.714;23.732;2023-04-16T10:30:23;2.97;;;0.90;;
11328;SDS011;5719;42.714;23.732;2023-04-16T10:32:51;1.70;;;0.60;;
11328;SDS011;5719;42.714;23.732;2023-04-16T10:35:18;4.90;;;0.70;;
11328;SDS011;5719;42.714;23.732;2023-04-16T10:37:45;1.10;;;0.60;;
11328;SDS011;5719;42.714;23.732;2023-04-16T10:40:22;1.70;;;0.60;;
11328;SDS011;5719;42.714;23.732;2023-04-16T10:42:57;2.55;;;0.90;;
11328;SDS011;5719;42.714;23.732;2023-04-16T10:45:26;1.30;;;0.73;;
11328;SDS011;5719;42.714;23.732;2023-04-16T10:47:57;4.45;;;0.90;;
11328;SDS011;5719;42.714;23.732;2023-04-16T10:50:24;4.00;;;0.80;;
11328;SDS011;5719;42.714;23.732;2023-04-16T10:53:17;1.65;;;0.70;;
11328;SDS011;5719;42.714;23.732;2023-04-16T10:55:58;3.20;;;0.75;;
11328;SDS011;5719;42.714;23.732;2023-04-16T10:58:41;2.17;;;0.75;;
11328;SDS011;5719;42.714;23.732;2023-04-16T11:01:10;4.05;;;0.88;;
11328;SDS011;5719;42.714;23.732;2023-04-16T11:03:42;1.33;;;0.60;;
11328;SDS011;5719;42.714;23.732;2023-04-16T11:06:12;1.60;;;0.80;;
11328;SDS011;5719;42.714;23.732;2023-04-16T11:08:41;5.13;;;1.00;;
11328;SDS011;5719;42.714;23.732;2023-04-16T11:11:10;2.53;;;1.05;;
11328;SDS011;5719;42.714;23.732;2023-04-16T11:13:37;2.70;;;0.60;;
11328;SDS011;5719;42.714;23.732;2023-04-16T11:16:10;4.68;;;0.90;;
11328;SDS011;5719;42.714;23.732;2023-04-16T11:18:38;5.43;;;0.95;;
11328;SDS011;5719;42.714;23.732;2023-04-16T11:21:06;3.85;;;0.80;;
11328;SDS011;5719;42.714;23.732;2023-04-16T11:23:45;3.30;;;0.80;;
11328;SDS011;5719;42.714;23.732;2023-04-16T11:26:19;3.90;;;0.75;;
11328;SDS011;5719;42.714;23.732;2023-04-16T11:28:50;5.18;;;0.80;;
11328;SDS011;5719;42.714;23.732;2023-04-16T11:31:17;3.95;;;1.10;;
11328;SDS011;5719;42.714;23.732;2023-04-16T11:33:44;3.70;;;0.77;;
11328;SDS011;5719;42.714;23.732;2023-04-16T11:36:11;3.75;;;0.90;;
11328;SDS011;5719;42.714;23.732;2023-04-16T11:38:38;1.27;;;0.75;;
11328;SDS011;5719;42.714;23.732;2023-04-16T11:41:07;2.92;;;1.10;;
11328;SDS011;5719;42.714;23.732;2023-04-16T11:43:34;3.08;;;1.02;;
11328;SDS011;5719;42.714;23.732;2023-04-16T11:46:03;1.92;;;0.80;;
11328;SDS011;5719;42.714;23.732;2023-04-16T11:48:47;4.35;;;1.00;;
11328;SDS011;5719;42.714;23.732;2023-04-16T11:51:15;2.83;;;0.90;;
11328;SDS011;5719;42.714;23.732;2023-04-16T11:53:46;3.08;;;0.77;;
11328;SDS011;5719;42.714;23.732;2023-04-16T11:56:13;5.00;;;1.10;;
11328;SDS011;5719;42.714;23.732;2023-04-16T11:58:42;3.17;;;1.00;;
11328;SDS011;5719;42.714;23.732;2023-04-16T12:01:12;2.30;;;0.98;;
11328;SDS011;5719;42.714;23.732;2023-04-16T12:03:46;3.25;;;1.08;;
11328;SDS011;5719;42.714;23.732;2023-04-16T12:06:13;2.90;;;0.70;;
11328;SDS011;5719;42.714;23.732;2023-04-16T12:08:41;3.75;;;0.93;;
11328;SDS011;5719;42.714;23.732;2023-04-16T12:11:08;1.90;;;1.08;;
11328;SDS011;5719;42.714;23.732;2023-04-16T12:13:35;2.33;;;0.80;;
11328;SDS011;5719;42.714;23.732;2023-04-16T12:16:11;0.73;;;0.73;;
11328;SDS011;5719;42.714;23.732;2023-04-16T12:18:57;1.73;;;0.60;;
11328;SDS011;5719;42.714;23.732;2023-04-16T12:21:24;2.38;;;0.70;;
11328;SDS011;5719;42.714;23.732;2023-04-16T12:23:52;2.75;;;0.95;;
11328;SDS011;5719;42.714;23.732;2023-04-16T12:26:19;3.78;;;1.23;;
11328;SDS011;5719;42.714;23.732;2023-04-16T12:28:46;5.25;;;0.98;;
11328;SDS011;5719;42.714;23.732;2023-04-16T12:31:13;6.40;;;0.80;;
11328;SDS011;5719;42.714;23.732;2023-04-16T12:33:42;2.67;;;0.93;;
11328;SDS011;5719;42.714;23.732;2023-04-16T12:36:16;1.38;;;0.50;;
11328;SDS011;5719;42.714;23.732;2023-04-16T12:38:43;1.13;;;0.80;;
11328;SDS011;5719;42.714;23.732;2023-04-16T12:41:10;4.05;;;0.98;;
11328;SDS011;5719;42.714;23.732;2023-04-16T12:43:37;7.35;;;1.30;;
11328;SDS011;5719;42.714;23.732;2023-04-16T12:46:05;5.72;;;1.40;;
11328;SDS011;5719;42.714;23.732;2023-04-16T12:48:32;4.35;;;1.00;;
11328;SDS011;5719;42.714;23.732;2023-04-16T12:51:00;2.13;;;0.95;;
11328;SDS011;5719;42.714;23.732;2023-04-16T12:53:28;2.70;;;0.90;;
11328;SDS011;5719;42.714;23.732;2023-04-16T12:55:55;3.03;;;0.90;;
11328;SDS011;5719;42.714;23.732;2023-04-16T12:58:22;5.35;;;1.20;;
11328;SDS011;5719;42.714;23.732;2023-04-16T13:00:49;4.55;;;1.40;;
11328;SDS011;5719;42.714;23.732;2023-04-16T13:03:16;1.42;;;1.00;;
11328;SDS011;5719;42.714;23.732;2023-04-16T13:05:44;3.10;;;1.40;;
11328;SDS011;5719;42.714;23.732;2023-04-16T13:08:13;2.13;;;1.10;;
11328;SDS011;5719;42.714;23.732;2023-04-16T13:10:40;2.53;;;1.40;;
11328;SDS011;5719;42.714;23.732;2023-04-16T13:13:07;1.98;;;1.13;;
11328;SDS011;5719;42.714;23.732;2023-04-16T13:15:34;4.63;;;1.30;;
11328;SDS011;5719;42.714;23.732;2023-04-16T13:18:02;1.88;;;1.40;;
11328;SDS011;5719;42.714;23.732;2023-04-16T13:20:29;6.20;;;1.40;;
11328;SDS011;5719;42.714;23.732;2023-04-16T13:22:56;4.28;;;1.50;;
11328;SDS011;5719;42.714;23.732;2023-04-16T13:25:24;2.22;;;1.30;;
11328;SDS011;5719;42.714;23.732;2023-04-16T13:27:51;3.47;;;1.60;;
11328;SDS011;5719;42.714;23.732;2023-04-16T13:30:18;6.43;;;1.83;;
11328;SDS011;5719;42.714;23.732;2023-04-16T13:32:45;2.45;;;1.23;;
11328;SDS011;5719;42.714;23.732;2023-04-16T13:35:12;3.85;;;1.42;;
11328;SDS011;5719;42.714;23.732;2023-04-16T13:37:41;2.72;;;1.50;;
11328;SDS011;5719;42.714;23.732;2023-04-16T13:40:08;5.75;;;2.00;;
11328;SDS011;5719;42.714;23.732;2023-04-16T13:42:37;5.68;;;1.50;;
11328;SDS011;5719;42.714;23.732;2023-04-16T13:45:05;2.75;;;1.70;;
11328;SDS011;5719;42.714;23.732;2023-04-16T13:47:33;4.40;;;1.73;;
11328;SDS011;5719;42.714;23.732;2023-04-16T13:50:00;4.30;;;1.60;;
11328;SDS011;5719;42.714;23.732;2023-04-16T13:52:28;3.03;;;1.83;;
11328;SDS011;5719;42.714;23.732;2023-04-16T13:54:55;4.03;;;1.45;;
11328;SDS011;5719;42.714;23.732;2023-04-16T13:57:22;5.00;;;2.03;;
11328;SDS011;5719;42.714;23.732;2023-04-16T13:59:50;6.28;;;2.22;;
11328;SDS011;5719;42.714;23.732;2023-04-16T14:02:17;7.03;;;2.15;;
11328;SDS011;5719;42.714;23.732;2023-04-16T14:04:45;3.67;;;1.50;;
11328;SDS011;5719;42.714;23.732;2023-04-16T14:07:12;8.52;;;2.00;;
11328;SDS011;5719;42.714;23.732;2023-04-16T14:09:40;5.85;;;1.58;;
11328;SDS011;5719;42.714;23.732;2023-04-16T14:12:07;6.97;;;1.83;;
11328;SDS011;5719;42.714;23.732;2023-04-16T14:14:34;3.03;;;1.90;;
11328;SDS011;5719;42.714;23.732;2023-04-16T14:17:03;6.63;;;1.63;;
11328;SDS011;5719;42.714;23.732;2023-04-16T14:19:31;3.50;;;1.50;;
11328;SDS011;5719;42.714;23.732;2023-04-16T14:21:58;2.35;;;1.60;;
11328;SDS011;5719;42.714;23.732;2023-04-16T14:24:25;3.85;;;1.73;;
11328;SDS011;5719;42.714;23.732;2023-04-16T14:26:52;4.78;;;2.03;;
11328;SDS011;5719;42.714;23.732;2023-04-16T14:29:19;3.58;;;1.75;;
11328;SDS011;5719;42.714;23.732;2023-04-16T14:31:46;3.92;;;1.55;;
11328;SDS011;5719;42.714;23.732;2023-04-16T14:34:16;3.15;;;1.60;;
11328;SDS011;5719;42.714;23.732;2023-04-16T14:36:43;3.78;;;1.55;;
11328;SDS011;5719;42.714;23.732;2023-04-16T14:39:10;2.90;;;1.65;;
11328;SDS011;5719;42.714;23.732;2023-04-16T14:41:37;5.15;;;1.83;;
11328;SDS011;5719;42.714;23.732;2023-04-16T14:44:05;6.28;;;2.05;;
11328;SDS011;5719;42.714;23.732;2023-04-16T14:46:32;6.38;;;1.50;;
11328;SDS011;5719;42.714;23.732;2023-04-16T14:49:00;1.65;;;1.33;;
11328;SDS011;5719;42.714;23.732;2023-04-16T14:51:30;2.75;;;1.38;;
11328;SDS011;5719;42.714;23.732;2023-04-16T14:53:57;6.15;;;1.58;;